Time;durP1;ratioP1;P1;durP2;ratioP2;P2;SDS_P1;SDS_P2;PMS_P1;PMS_P2;Temp;Humidity;BMP_temperature;BMP_pressure;BME280_temperature;BME280_humidity;BME280_pressure;Samples;Min_cycle;Max_cycle;Signal;HPM_P1;HPM_P2
2022/08/26 00:00:20;;;;;;;;;4.00;4.00;;;;;24.28;54.67;101167.19;5073975;27;50395;-69
2022/08/26 00:02:46;;;;;;;;;3.33;3.00;;;;;23.73;54.45;101083.84;5074310;27;56587;-69
2022/08/26 00:05:11;;;;;;;;;5.67;4.33;;;;;24.33;55.00;101191.66;5074030;28;50147;-68
2022/08/26 00:07:36;;;;;;;;;2.67;2.00;;;;;24.14;54.84;101163.91;5074446;27;46726;-68
2022/08/26 00:10:03;;;;;;;;;4.00;2.00;;;;;24.28;55.17;101185.41;5074703;27;45718;-67
2022/08/26 00:12:28;;;;;;;;;3.00;2.67;;;;;24.15;55.24;101171.13;5069133;28;46463;-69
2022/08/26 00:14:53;;;;;;;;;2.33;2.33;;;;;24.21;55.28;101194.69;5071666;27;45364;-67
2022/08/26 00:17:19;;;;;;;;;2.67;2.67;;;;;24.23;55.13;101195.53;5071693;28;55618;-69
2022/08/26 00:19:44;;;;;;;;;4.00;3.00;;;;;24.22;55.43;101196.47;5070683;27;45570;-67
2022/08/26 00:22:09;;;;;;;;;2.67;2.67;;;;;24.23;55.42;101203.72;5073583;28;51216;-67
2022/08/26 00:24:35;;;;;;;;;2.67;2.67;;;;;24.23;55.40;101207.34;5072265;28;47872;-67
2022/08/26 00:27:00;;;;;;;;;5.33;4.00;;;;;24.26;55.12;101206.41;5071956;28;45461;-67
2022/08/26 00:29:26;;;;;;;;;3.00;3.00;;;;;24.29;55.24;101211.78;5073639;28;45490;-69
2022/08/26 00:31:51;;;;;;;;;2.33;2.00;;;;;24.29;54.99;101201.75;5073269;28;46214;-67
2022/08/26 00:34:16;;;;;;;;;3.33;2.00;;;;;24.26;55.14;101190.91;5072767;28;45386;-68
2022/08/26 00:36:42;;;;;;;;;2.67;2.67;;;;;24.26;55.23;101209.13;5073567;27;45354;-68
2022/08/26 00:39:08;;;;;;;;;4.00;4.00;;;;;24.21;55.41;101200.16;5073985;27;45637;-66
2022/08/26 00:41:39;;;;;;;;;3.33;3.33;;;;;24.21;55.29;101200.16;5071089;27;46146;-69
2022/08/26 00:44:05;;;;;;;;;3.33;2.67;;;;;24.23;55.42;101201.88;5073913;28;45533;-67
2022/08/26 00:46:35;;;;;;;;;5.00;4.00;;;;;24.19;55.79;101208.38;5071088;28;45615;-67
2022/08/26 00:49:08;;;;;;;;;2.67;2.67;;;;;23.95;55.87;101185.25;5071323;28;45468;-69
2022/08/26 00:51:41;;;;;;;;;4.00;4.00;;;;;24.05;56.39;101205.94;5072495;28;46459;-68
2022/08/26 00:54:09;;;;;;;;;4.00;4.00;;;;;23.98;56.02;101197.94;5072237;28;45544;-67
2022/08/26 00:56:47;;;;;;;;;4.00;4.00;;;;;23.96;56.69;101211.63;5072870;27;45454;-67
2022/08/26 00:59:14;;;;;;;;;6.00;4.00;;;;;23.97;56.47;101202.47;5073577;27;45891;-67
2022/08/26 01:01:42;;;;;;;;;5.33;4.00;;;;;23.96;56.40;101210.72;5072494;28;46250;-67
2022/08/26 01:04:10;;;;;;;;;7.00;4.00;;;;;24.00;56.36;101216.06;5073355;28;45519;-67
2022/08/26 01:06:36;;;;;;;;;7.00;4.67;;;;;23.86;56.35;101185.47;5073090;28;45661;-69
2022/08/26 01:09:03;;;;;;;;;4.00;4.00;;;;;23.96;56.31;101210.72;5071879;27;45511;-67
2022/08/26 01:11:30;;;;;;;;;4.00;4.00;;;;;23.97;56.59;101210.66;5072142;27;46409;-67
2022/08/26 01:13:58;;;;;;;;;7.00;6.00;;;;;23.99;56.26;101205.16;5073775;27;45671;-67
2022/08/26 01:16:24;;;;;;;;;2.33;2.33;;;;;23.86;56.44;101186.34;5071520;28;45487;-67
2022/08/26 01:18:54;;;;;;;;;6.00;5.00;;;;;23.95;56.66;101207.06;5071579;28;45665;-70
2022/08/26 01:21:30;;;;;;;;;4.00;2.00;;;;;23.94;56.49;101201.66;5072582;28;46068;-69
2022/08/26 01:23:57;;;;;;;;;5.00;4.33;;;;;23.92;56.54;101196.22;5066730;28;45516;-68
2022/08/26 01:26:32;;;;;;;;;3.00;3.00;;;;;23.49;56.91;101120.72;5073165;27;45424;-67
2022/08/26 01:29:01;;;;;;;;;6.33;4.33;;;;;23.91;56.65;101194.44;5084238;27;45663;-68
2022/08/26 01:31:32;;;;;;;;;4.00;3.00;;;;;23.86;56.80;101199.09;5072758;28;46266;-68
2022/08/26 01:34:15;;;;;;;;;6.00;4.00;;;;;23.81;57.18;101204.63;5078867;28;45620;-67
2022/08/26 01:36:40;;;;;;;;;2.67;1.00;;;;;23.76;57.10;101209.28;5079381;27;45616;-68
2022/08/26 01:39:06;;;;;;;;;5.33;4.67;;;;;23.78;57.13;101201.97;5080127;28;45484;-67
2022/08/26 01:41:32;;;;;;;;;7.00;5.67;;;;;23.67;57.52;101199.44;5077538;27;45507;-68
2022/08/26 01:43:59;;;;;;;;;4.33;4.33;;;;;23.72;57.21;101199.34;5074837;27;45948;-67
2022/08/26 01:46:27;;;;;;;;;4.67;3.33;;;;;23.65;57.06;101186.78;5079346;27;45452;-67
2022/08/26 01:48:55;;;;;;;;;5.00;5.00;;;;;23.53;57.26;101167.00;5080704;28;45493;-68
2022/08/26 01:51:23;;;;;;;;;7.00;6.33;;;;;23.81;57.39;101206.44;5075487;28;45417;-69
2022/08/26 01:53:49;;;;;;;;;7.33;5.67;;;;;23.82;57.29;101202.78;5079407;27;45538;-69
2022/08/26 01:56:15;;;;;;;;;9.00;7.00;;;;;23.73;57.11;101192.97;5079783;28;45293;-67
2022/08/26 01:58:47;;;;;;;;;5.00;3.67;;;;;23.77;57.32;101202.88;5077345;27;45405;-69
2022/08/26 02:01:13;;;;;;;;;9.00;7.00;;;;;23.75;57.37;101207.47;5076745;28;47005;-66
2022/08/26 02:03:50;;;;;;;;;8.00;8.00;;;;;23.37;57.48;101147.31;5078711;27;45677;-68
2022/08/26 02:06:17;;;;;;;;;6.00;6.00;;;;;23.64;57.66;101215.91;5078825;27;45600;-69
2022/08/26 02:08:46;;;;;;;;;6.00;4.67;;;;;23.62;57.71;101205.94;5078774;28;46145;-67
2022/08/26 02:11:12;;;;;;;;;8.00;5.00;;;;;23.65;57.55;101220.41;5077775;27;46095;-67
2022/08/26 02:13:44;;;;;;;;;8.67;7.00;;;;;23.66;57.66;101222.22;5079270;27;44899;-67
2022/08/26 02:16:10;;;;;;;;;7.67;7.33;;;;;23.63;57.60;101227.72;5093820;27;46855;-67
2022/08/26 02:18:39;;;;;;;;;9.33;9.00;;;;;23.64;57.48;101228.63;5079155;27;45586;-67
2022/08/26 02:21:06;;;;;;;;;6.33;6.33;;;;;23.57;57.90;101221.50;5079307;27;45597;-69
2022/08/26 02:23:31;;;;;;;;;5.00;5.00;;;;;23.61;57.63;101223.22;5079611;27;45417;-70
2022/08/26 02:26:08;;;;;;;;;13.00;7.33;;;;;23.62;57.93;101234.09;5078657;28;45428;-69
2022/08/26 02:29:26;;;;;;;;;14.00;8.33;;;;;23.59;57.79;101228.69;5077618;27;45714;-69
2022/08/26 02:31:54;;;;;;;;;10.00;7.00;;;;;23.51;58.07;101225.22;5063313;28;46468;-69
2022/08/26 02:34:24;;;;;;;;;13.33;8.33;;;;;23.44;58.05;101224.44;5074965;28;45415;-69
2022/08/26 02:36:50;;;;;;;;;12.00;9.00;;;;;23.39;58.41;101210.00;5077866;27;45367;-68
2022/08/26 02:39:15;;;;;;;;;8.33;8.33;;;;;23.33;58.26;101199.25;5078464;28;45404;-68
2022/08/26 02:41:41;;;;;;;;;11.67;9.00;;;;;23.45;58.13;101223.53;5078274;28;45459;-68
2022/08/26 02:44:07;;;;;;;;;11.00;8.67;;;;;23.29;58.45;101194.75;5075139;27;45730;-67
2022/08/26 02:46:32;;;;;;;;;8.33;7.00;;;;;23.37;58.36;101229.13;5076061;27;46064;-68
2022/08/26 02:49:00;;;;;;;;;13.33;9.00;;;;;23.33;58.58;101226.50;5073986;27;45647;-67
2022/08/26 02:51:25;;;;;;;;;9.33;9.33;;;;;23.31;58.54;101215.63;5073880;27;46298;-67
2022/08/26 02:53:50;;;;;;;;;10.67;9.00;;;;;23.23;58.45;101205.78;5076450;27;45774;-69
2022/08/26 02:56:16;;;;;;;;;11.33;9.00;;;;;23.33;58.69;101229.25;5074635;28;45338;-69
2022/08/26 02:58:41;;;;;;;;;9.00;6.67;;;;;23.27;58.85;101226.63;5074774;28;54353;-70
2022/08/26 03:01:07;;;;;;;;;10.67;8.67;;;;;23.24;58.72;101222.09;5075602;27;46287;-69
2022/08/26 03:03:32;;;;;;;;;15.33;11.00;;;;;23.24;59.03;101233.00;5074505;27;45445;-69
2022/08/26 03:05:58;;;;;;;;;15.33;9.67;;;;;23.27;58.91;101218.44;5075147;28;45382;-67
2022/08/26 03:08:23;;;;;;;;;10.33;8.67;;;;;23.21;58.62;101219.44;5075651;28;45428;-67
2022/08/26 03:10:48;;;;;;;;;11.67;11.67;;;;;23.13;58.98;101202.31;5075949;27;45769;-69
2022/08/26 03:13:14;;;;;;;;;12.00;8.33;;;;;23.22;59.10;101223.97;5074331;27;45650;-68
2022/08/26 03:15:39;;;;;;;;;10.00;9.00;;;;;23.22;59.26;101223.97;5074709;27;46667;-68
2022/08/26 03:18:05;;;;;;;;;12.67;11.67;;;;;23.25;58.80;101225.75;5072708;28;46745;-67
2022/08/26 03:20:32;;;;;;;;;11.00;9.67;;;;;23.27;58.91;101224.78;5075449;27;45498;-68
2022/08/26 03:22:58;;;;;;;;;12.67;12.00;;;;;23.26;59.09;101227.53;5074961;27;45266;-68
2022/08/26 03:25:24;;;;;;;;;46.25;36.25;;;;;23.10;59.45;101225.09;5074620;28;45428;-68
2022/08/26 03:27:50;;;;;;;;;14.33;11.00;;;;;23.01;59.60;101208.88;5074735;27;45429;-68
2022/08/26 03:33:00;;;;;;;;;15.33;12.33;;;;;23.09;59.57;101226.00;5074181;27;45541;-68
2022/08/26 03:35:26;;;;;;;;;9.33;9.00;;;;;23.09;59.54;101217.84;5075304;27;45481;-67
2022/08/26 03:37:52;;;;;;;;;13.33;8.67;;;;;23.10;59.59;101213.28;5075237;28;46684;-67
2022/08/26 03:40:18;;;;;;;;;12.33;10.00;;;;;23.10;59.76;101213.28;5072798;28;46278;-68
2022/08/26 03:42:44;;;;;;;;;14.33;9.67;;;;;23.09;59.45;101214.22;5071956;27;45752;-67
2022/08/26 03:45:11;;;;;;;;;10.00;10.00;;;;;23.10;59.84;101219.66;5073321;28;45353;-69
2022/08/26 03:47:38;;;;;;;;;17.00;13.33;;;;;23.11;59.77;101226.00;5074771;28;46035;-68
2022/08/26 03:50:06;;;;;;;;;15.33;11.33;;;;;23.06;59.82;101208.78;5075092;27;45651;-68
2022/08/26 03:52:32;;;;;;;;;15.00;9.67;;;;;23.05;59.95;101215.16;5073256;27;45524;-70
2022/08/26 03:54:57;;;;;;;;;13.33;12.00;;;;;22.96;59.80;101205.31;5071333;28;45628;-67
2022/08/26 03:57:22;;;;;;;;;13.33;10.67;;;;;23.12;60.00;101225.06;5074533;28;45595;-67
2022/08/26 03:59:48;;;;;;;;;14.33;12.33;;;;;23.12;59.94;101217.78;5074699;27;53918;-67
2022/08/26 04:02:13;;;;;;;;;12.33;10.33;;;;;23.16;59.95;101218.63;5074452;28;45435;-67
2022/08/26 04:04:39;;;;;;;;;13.67;9.33;;;;;23.03;59.70;101184.31;5074505;27;45475;-68
2022/08/26 04:07:04;;;;;;;;;19.00;11.67;;;;;23.15;59.80;101217.72;5072858;27;45521;-68
2022/08/26 04:09:29;;;;;;;;;11.00;10.33;;;;;23.11;59.85;101209.63;5074278;28;54552;-70
2022/08/26 04:11:57;;;;;;;;;15.00;11.67;;;;;23.16;59.72;101224.06;5074808;28;45776;-68
2022/08/26 04:14:24;;;;;;;;;12.67;11.67;;;;;23.15;59.74;101225.91;5074638;28;46739;-67
2022/08/26 04:16:51;;;;;;;;;13.67;11.33;;;;;23.14;59.75;101215.03;5070987;28;45261;-68
2022/08/26 04:19:18;;;;;;;;;7.67;7.33;;;;;23.12;59.94;101215.06;5073494;27;46574;-66
2022/08/26 04:21:44;;;;;;;;;19.00;9.33;;;;;23.11;59.87;101212.34;5074163;28;45679;-68
2022/08/26 04:24:12;;;;;;;;;14.33;11.00;;;;;23.16;59.81;101226.81;5073827;27;45541;-66
2022/08/26 04:26:38;;;;;;;;;19.00;12.00;;;;;23.12;59.56;101216.91;5070524;27;45617;-69
2022/08/26 04:29:07;;;;;;;;;11.00;11.00;;;;;23.13;59.61;101219.59;5074263;27;46546;-70
2022/08/26 04:31:34;;;;;;;;;12.67;10.33;;;;;23.13;59.89;101226.84;5074415;27;45598;-68
2022/08/26 04:34:00;;;;;;;;;11.67;11.67;;;;;23.14;59.89;101225.94;5071854;28;45676;-68
2022/08/26 04:36:25;;;;;;;;;13.67;11.00;;;;;23.15;59.73;101230.47;5073450;28;45529;-67
2022/08/26 04:38:51;;;;;;;;;12.00;11.00;;;;;23.21;59.91;101226.72;5071954;27;47051;-67
2022/08/26 04:41:18;;;;;;;;;13.67;13.67;;;;;23.18;59.61;101230.38;5073228;27;45645;-69
2022/08/26 04:43:45;;;;;;;;;14.67;13.00;;;;;23.15;59.74;101231.38;5074217;28;45509;-68
2022/08/26 04:46:15;;;;;;;;;22.33;16.33;;;;;23.11;59.77;101231.44;5072206;27;45507;-67
2022/08/26 04:48:40;;;;;;;;;17.67;14.33;;;;;23.13;59.82;101233.22;5073682;28;46105;-68
2022/08/26 04:51:06;;;;;;;;;11.33;11.33;;;;;23.16;59.67;101234.97;5071269;27;45308;-67
2022/08/26 04:53:32;;;;;;;;;18.67;12.00;;;;;23.10;59.62;101225.09;5088701;28;45803;-68
2022/08/26 04:55:57;;;;;;;;;19.00;14.00;;;;;22.97;59.96;101202.56;5088921;27;51121;-68
2022/08/26 04:58:24;;;;;;;;;17.67;16.33;;;;;23.19;59.70;101241.28;5088743;27;45104;-67
2022/08/26 05:00:51;;;;;;;;;17.67;13.67;;;;;23.22;59.73;101239.44;5088852;28;45147;-68
2022/08/26 05:03:18;;;;;;;;;16.33;14.33;;;;;23.05;59.41;101204.25;5089724;27;45139;-67
2022/08/26 05:05:45;;;;;;;;;24.00;13.00;;;;;23.15;59.51;101222.28;5088240;28;45401;-66
2022/08/26 05:08:13;;;;;;;;;15.00;13.00;;;;;23.23;59.38;101233.97;5088305;28;46134;-68
2022/08/26 05:10:44;;;;;;;;;18.33;13.33;;;;;23.33;59.58;101248.31;5087497;28;45086;-68
2022/08/26 05:13:11;;;;;;;;;16.33;12.33;;;;;23.32;59.46;101247.41;5073291;28;45576;-67
2022/08/26 05:15:36;;;;;;;;;14.67;12.00;;;;;23.32;59.32;101246.50;5073899;28;45449;-66
2022/08/26 05:18:03;;;;;;;;;44.50;32.25;;;;;23.32;59.41;101255.59;5074038;28;46198;-69
2022/08/26 05:20:28;;;;;;;;;20.67;18.33;;;;;23.34;59.28;101256.44;5072428;28;45369;-67
2022/08/26 05:22:54;;;;;;;;;15.67;13.00;;;;;23.29;59.56;101252.00;5080824;28;45254;-69
2022/08/26 05:25:19;;;;;;;;;16.33;13.33;;;;;23.31;59.49;101261.06;5076157;28;45584;-68
2022/08/26 05:27:44;;;;;;;;;13.67;12.33;;;;;23.22;59.54;101250.34;5071332;27;53432;-67
2022/08/26 05:30:10;;;;;;;;;20.33;16.00;;;;;23.27;59.38;101254.78;5070109;27;45453;-67
2022/08/26 05:32:35;;;;;;;;;16.00;12.00;;;;;23.29;59.34;101263.81;5073606;27;45449;-67
2022/08/26 05:35:01;;;;;;;;;18.00;12.33;;;;;23.32;59.40;101277.41;5072695;27;45623;-68
2022/08/26 05:37:26;;;;;;;;;13.67;12.00;;;;;23.26;59.34;101269.31;5074067;28;46299;-67
2022/08/26 05:39:51;;;;;;;;;14.33;14.33;;;;;23.18;59.98;101274.94;5074610;27;45518;-69
2022/08/26 05:42:18;;;;;;;;;24.00;22.33;;;;;23.07;60.11;101252.41;5072582;28;45493;-67
2022/08/26 05:44:44;;;;;;;;;16.00;14.67;;;;;23.28;59.54;101272.00;5072341;28;45390;-66
2022/08/26 05:47:09;;;;;;;;;13.33;11.67;;;;;23.27;59.58;101281.16;5071525;27;46602;-69
2022/08/26 05:49:34;;;;;;;;;22.33;14.00;;;;;23.29;59.38;101282.00;5072760;28;45319;-66
2022/08/26 05:52:00;;;;;;;;;17.33;15.67;;;;;23.18;59.61;101276.72;5072795;27;45425;-69
2022/08/26 05:54:25;;;;;;;;;14.67;11.67;;;;;22.86;59.56;101225.50;5072321;28;45529;-67
2022/08/26 05:56:50;;;;;;;;;16.00;14.67;;;;;23.22;59.55;101291.22;5073140;28;45775;-69
2022/08/26 05:59:16;;;;;;;;;17.00;15.67;;;;;23.14;59.67;101284.06;5073116;28;45571;-66
2022/08/26 06:01:42;;;;;;;;;15.33;14.00;;;;;23.19;59.53;101295.78;5072495;28;45445;-69
2022/08/26 06:04:08;;;;;;;;;14.33;11.00;;;;;22.79;59.65;101233.75;5073130;28;45460;-68
2022/08/26 06:06:35;;;;;;;;;20.67;13.00;;;;;23.17;59.83;101300.38;5072728;27;46098;-68
2022/08/26 06:09:04;;;;;;;;;18.00;13.67;;;;;23.20;59.81;101291.25;5071270;28;45468;-68
2022/08/26 06:11:31;;;;;;;;;17.67;14.67;;;;;23.15;59.65;101293.16;5080962;27;45455;-68
2022/08/26 06:14:00;;;;;;;;;17.00;14.00;;;;;23.15;59.85;101301.34;5074839;28;45188;-67
2022/08/26 06:16:25;;;;;;;;;17.33;14.33;;;;;23.08;59.87;101284.19;5082066;28;45591;-67
2022/08/26 06:18:51;;;;;;;;;19.00;14.67;;;;;23.13;59.68;101287.75;5074307;28;45289;-69
2022/08/26 06:21:21;;;;;;;;;14.67;13.67;;;;;23.19;59.92;101300.34;5076260;27;45503;-67
2022/08/26 06:26:35;;;;;;;;;19.33;16.67;;;;;23.14;59.44;101281.34;5075939;27;45216;-68
2022/08/26 06:29:02;;;;;;;;;18.00;14.67;;;;;23.28;59.00;101285.66;5076144;27;45487;-69
2022/08/26 06:31:28;;;;;;;;;16.00;14.33;;;;;23.28;58.76;101281.13;5075778;27;45622;-67
2022/08/26 06:33:54;;;;;;;;;13.67;12.00;;;;;23.33;58.51;101292.84;5076582;27;45477;-67
2022/08/26 06:36:27;;;;;;;;;12.33;12.33;;;;;23.14;58.05;101256.81;5068600;28;47857;-69
2022/08/26 06:38:55;;;;;;;;;13.33;11.33;;;;;23.29;58.30;101282.91;5075820;27;45500;-69
2022/08/26 06:41:21;;;;;;;;;14.00;12.00;;;;;23.23;57.97;101272.13;5076110;27;45584;-67
2022/08/26 06:43:48;;;;;;;;;16.00;13.33;;;;;23.32;57.98;101295.59;5074578;28;45546;-68
2022/08/26 06:46:16;;;;;;;;;9.33;9.33;;;;;23.27;57.72;101295.66;5075108;27;45375;-69
2022/08/26 06:48:42;;;;;;;;;15.00;13.33;;;;;23.25;57.86;101294.81;5075667;28;45373;-67
2022/08/26 06:51:12;;;;;;;;;14.00;13.33;;;;;23.28;58.00;101293.81;5075128;28;45594;-68
2022/08/26 06:53:39;;;;;;;;;11.67;11.00;;;;;23.35;57.93;101295.53;5076009;27;45632;-68
2022/08/26 06:56:06;;;;;;;;;10.00;7.67;;;;;23.40;57.45;101271.81;5075109;27;45462;-69
2022/08/26 06:58:33;;;;;;;;;15.00;12.67;;;;;23.54;57.38;101299.75;5075624;28;45286;-69
2022/08/26 07:00:59;;;;;;;;;14.00;13.67;;;;;23.61;56.82;101291.41;5075143;28;45323;-66
2022/08/26 07:03:24;;;;;;;;;13.33;11.00;;;;;23.65;56.74;101301.34;5075772;27;45377;-69
2022/08/26 07:05:49;;;;;;;;;12.00;10.00;;;;;23.61;56.39;101292.34;5075368;28;45441;-69
2022/08/26 07:08:15;;;;;;;;;13.33;12.67;;;;;23.51;56.92;101298.88;5075237;28;45524;-69
2022/08/26 07:10:41;;;;;;;;;13.67;10.33;;;;;23.44;56.93;101278.09;5075221;27;46195;-69
2022/08/26 07:13:07;;;;;;;;;12.33;12.00;;;;;23.57;56.57;101289.69;5075735;28;45483;-67
2022/08/26 07:15:34;;;;;;;;;13.33;13.33;;;;;23.49;56.59;101281.63;5074949;28;46116;-68
2022/08/26 07:18:00;;;;;;;;;14.00;11.67;;;;;23.61;56.44;101292.34;5075184;27;45259;-68
2022/08/26 07:20:25;;;;;;;;;19.33;13.00;;;;;23.29;56.35;101241.09;5075547;27;45381;-67
2022/08/26 07:22:51;;;;;;;;;11.67;10.67;;;;;23.66;56.42;101293.13;5075279;28;45285;-69
2022/08/26 07:25:16;;;;;;;;;18.50;15.00;;;;;23.71;56.01;101291.22;5075140;27;47056;-68
2022/08/26 07:27:41;;;;;;;;;12.67;10.67;;;;;23.81;56.00;101300.13;5085592;28;45243;-68
2022/08/26 07:30:07;;;;;;;;;13.00;11.67;;;;;23.85;55.09;101293.69;5091324;27;45110;-67
2022/08/26 07:32:33;;;;;;;;;14.00;12.67;;;;;23.86;55.56;101297.34;5093519;27;45319;-68
2022/08/26 07:34:58;;;;;;;;;22.33;14.00;;;;;23.76;54.92;101280.22;5089326;27;45341;-70
2022/08/26 07:37:27;;;;;;;;;14.33;11.67;;;;;23.92;54.90;101292.66;5090432;28;44957;-67
2022/08/26 07:39:52;;;;;;;;;13.33;12.00;;;;;23.88;54.39;101282.72;5089607;27;45370;-68
2022/08/26 07:42:19;;;;;;;;;17.33;14.67;;;;;24.04;54.28;101301.50;5077871;27;45420;-68
2022/08/26 07:44:44;;;;;;;;;19.33;15.00;;;;;23.99;54.04;101274.31;5070189;27;45539;-66
2022/08/26 07:47:11;;;;;;;;;12.00;11.00;;;;;23.98;54.10;101264.31;5070004;28;45469;-66
2022/08/26 07:49:37;;;;;;;;;12.00;11.67;;;;;24.21;53.20;101298.44;5073165;27;45453;-65
2022/08/26 07:52:03;;;;;;;;;14.00;10.33;;;;;24.12;53.42;101282.25;5072720;27;45646;-65
2022/08/26 07:54:28;;;;;;;;;14.00;11.00;;;;;24.19;53.97;101287.53;5073222;27;45527;-65
2022/08/26 07:56:54;;;;;;;;;10.33;9.00;;;;;24.25;53.27;101298.34;5066377;27;45405;-66
2022/08/26 07:59:20;;;;;;;;;12.67;11.67;;;;;23.85;53.04;101239.13;5069178;27;45496;-66
2022/08/26 08:01:45;;;;;;;;;9.67;8.33;;;;;24.15;53.55;101290.38;5071318;27;45397;-66
2022/08/26 08:04:16;;;;;;;;;12.00;7.67;;;;;24.16;53.16;101298.53;5070579;27;45601;-66
2022/08/26 08:06:43;;;;;;;;;14.33;14.33;;;;;24.18;53.37;101302.13;5069202;27;45528;-67
2022/08/26 08:09:09;;;;;;;;;12.00;10.33;;;;;24.14;53.31;101292.22;5076401;27;45624;-68
2022/08/26 08:11:34;;;;;;;;;12.67;10.00;;;;;24.29;53.24;101299.16;5075096;27;45537;-66
2022/08/26 08:14:01;;;;;;;;;13.00;12.00;;;;;24.36;52.75;101297.19;5073490;27;46928;-66
2022/08/26 08:16:27;;;;;;;;;16.67;15.33;;;;;24.50;53.06;101302.34;5073388;27;45460;-67
2022/08/26 08:18:55;;;;;;;;;11.67;9.67;;;;;24.57;52.19;101293.13;5073598;27;45431;-66
2022/08/26 08:21:21;;;;;;;;;13.67;9.67;;;;;24.38;51.81;101243.44;5072708;28;45259;-66
2022/08/26 08:23:46;;;;;;;;;9.67;9.67;;;;;24.75;51.46;101300.88;5073524;27;45667;-66
2022/08/26 08:26:11;;;;;;;;;9.33;9.33;;;;;24.72;51.86;101305.53;5071889;27;45521;-67
2022/08/26 08:28:37;;;;;;;;;8.33;8.33;;;;;24.72;51.56;101300.06;5074892;27;45684;-67
2022/08/26 08:31:04;;;;;;;;;13.33;9.00;;;;;24.89;51.03;101299.66;5068696;27;45531;-69
2022/08/26 08:33:30;;;;;;;;;8.33;8.00;;;;;25.07;50.92;101301.91;5068995;27;45541;-66
2022/08/26 08:35:57;;;;;;;;;10.67;9.00;;;;;25.21;50.06;101296.13;5071042;27;45563;-67
2022/08/26 08:38:22;;;;;;;;;11.00;10.00;;;;;24.87;50.17;101238.66;5070616;27;45460;-67
2022/08/26 08:40:48;;;;;;;;;11.67;10.00;;;;;25.10;50.42;101282.72;5068868;27;45448;-66
2022/08/26 08:43:32;;;;;;;;;8.33;7.33;;;;;25.24;50.13;101292.38;5070374;27;46087;-65
2022/08/26 08:46:03;;;;;;;;;10.67;10.33;;;;;25.14;50.79;101276.22;5071171;27;46335;-67
2022/08/26 08:48:41;;;;;;;;;11.00;10.00;;;;;25.22;50.64;101295.16;5073602;27;45574;-67
2022/08/26 08:51:17;;;;;;;;;13.00;9.33;;;;;25.18;50.24;101299.81;5071581;27;45499;-67
2022/08/26 08:53:46;;;;;;;;;12.00;10.33;;;;;25.07;50.45;101288.25;5076212;27;45674;-67
2022/08/26 08:56:38;;;;;;;;;6.67;6.67;;;;;25.11;50.64;101291.81;5073471;27;45565;-68
2022/08/26 08:59:22;;;;;;;;;9.33;8.33;;;;;25.22;50.13;101297.00;5068051;27;45453;-68
2022/08/26 09:01:51;;;;;;;;;11.00;7.33;;;;;25.33;49.89;101300.41;5062405;27;45711;-67
2022/08/26 09:04:31;;;;;;;;;10.33;9.33;;;;;25.35;49.58;101295.78;5072674;27;46371;-67
2022/08/26 09:06:59;;;;;;;;;10.67;10.67;;;;;25.43;49.69;101280.06;5071653;27;45495;-68
2022/08/26 09:09:34;;;;;;;;;8.67;8.33;;;;;25.64;48.66;101291.34;5071416;28;45668;-67
2022/08/26 09:12:01;;;;;;;;;9.00;8.00;;;;;25.80;48.38;101297.28;5066510;28;45686;-68
2022/08/26 09:14:26;;;;;;;;;11.00;8.33;;;;;25.84;48.12;101278.00;5072706;27;46127;-67
2022/08/26 09:17:03;;;;;;;;;9.33;7.00;;;;;26.03;47.77;101293.94;5069497;27;45468;-67
2022/08/26 09:19:44;;;;;;;;;6.33;5.67;;;;;25.90;47.03;101271.44;5078788;27;45066;-68
2022/08/26 09:22:10;;;;;;;;;8.67;7.67;;;;;25.94;47.38;101286.84;5070681;27;45532;-66
2022/08/26 09:24:39;;;;;;;;;6.67;6.67;;;;;26.00;47.34;101289.44;5071021;27;46070;-66
2022/08/26 09:27:04;;;;;;;;;8.67;8.67;;;;;25.93;47.29;101266.78;5070529;27;45638;-66
2022/08/26 09:29:39;;;;;;;;;7.00;7.00;;;;;26.02;47.23;101283.91;5072262;27;45676;-69
2022/08/26 09:32:23;;;;;;;;;9.00;8.00;;;;;25.93;46.88;101283.19;5075012;27;45536;-66
2022/08/26 09:35:01;;;;;;;;;8.33;6.67;;;;;26.00;46.90;101283.94;5066892;27;45522;-66
2022/08/26 09:37:40;;;;;;;;;11.00;8.67;;;;;26.03;47.24;101293.94;5072265;27;45359;-69
2022/08/26 09:40:33;;;;;;;;;11.00;6.33;;;;;26.01;46.84;101290.34;5071527;27;45449;-70
2022/08/26 09:43:08;;;;;;;;;9.00;8.33;;;;;25.99;46.78;101284.91;5066191;28;45912;-68
2022/08/26 09:45:34;;;;;;;;;14.67;9.00;;;;;26.07;47.20;101277.38;5067778;27;46628;-66
2022/08/26 09:48:01;;;;;;;;;9.00;8.00;;;;;26.14;46.24;101267.13;5070786;28;45417;-69
2022/08/26 09:50:55;;;;;;;;;10.33;8.00;;;;;26.23;46.31;101286.03;5072117;27;45388;-67
2022/08/26 09:53:24;;;;;;;;;11.67;9.00;;;;;26.22;46.18;101278.75;5075472;27;45475;-67
2022/08/26 09:56:10;;;;;;;;;9.00;9.00;;;;;26.22;46.80;101289.72;5075552;27;46648;-68
2022/08/26 09:58:38;;;;;;;;;34.00;20.00;;;;;26.11;46.37;101275.44;5075511;27;45474;-69
2022/08/26 10:01:15;;;;;;;;;8.33;7.33;;;;;26.24;46.18;101292.41;5075837;27;45574;-66
2022/08/26 10:03:41;;;;;;;;;6.00;5.33;;;;;25.86;46.10;101224.09;5071276;27;45460;-69
2022/08/26 10:06:25;;;;;;;;;7.33;7.33;;;;;26.24;46.27;101285.06;5075932;27;45784;-67
2022/08/26 10:08:56;;;;;;;;;12.00;9.67;;;;;26.28;46.39;101284.06;5073193;27;45644;-66
2022/08/26 10:11:38;;;;;;;;;11.00;9.67;;;;;26.39;45.65;101286.44;5075926;27;45603;-69
2022/08/26 10:14:16;;;;;;;;;9.33;8.33;;;;;26.46;45.83;101267.97;5075710;27;45563;-67
2022/08/26 10:16:51;;;;;;;;;8.67;8.00;;;;;26.72;45.21;101280.88;5074906;27;46303;-68
2022/08/26 10:19:25;;;;;;;;;7.00;5.33;;;;;26.67;44.61;101249.97;5071146;27;45609;-65
2022/08/26 10:21:50;;;;;;;;;11.33;8.33;;;;;26.85;44.40;101273.16;5076535;27;45302;-66
2022/08/26 10:24:22;;;;;;;;;7.33;6.33;;;;;26.85;43.98;101275.88;5076236;27;45465;-66
2022/08/26 10:27:01;;;;;;;;;8.33;5.67;;;;;26.89;43.62;101265.72;5075915;28;46122;-67
2022/08/26 10:29:45;;;;;;;;;7.67;7.67;;;;;26.98;43.70;101252.59;5075473;27;45986;-68
2022/08/26 10:32:19;;;;;;;;;5.33;5.33;;;;;26.93;44.12;101232.66;5075110;27;45635;-66
2022/08/26 10:34:44;;;;;;;;;5.33;5.33;;;;;27.18;43.28;101267.47;5069851;28;45506;-67
2022/08/26 10:37:14;;;;;;;;;7.67;6.00;;;;;26.98;43.03;101230.66;5075834;27;45963;-67
2022/08/26 10:39:52;;;;;;;;;13.67;9.33;;;;;27.17;42.55;101260.19;5075973;28;45444;-69
2022/08/26 10:42:36;;;;;;;;;9.00;6.00;;;;;27.13;42.22;101264.00;5074756;28;45462;-68
2022/08/26 10:45:11;;;;;;;;;8.00;5.00;;;;;27.10;42.40;101266.84;5074614;27;45441;-67
2022/08/26 10:47:44;;;;;;;;;8.67;7.33;;;;;27.04;42.93;101259.69;5073318;27;46089;-67
2022/08/26 10:50:10;;;;;;;;;7.33;5.67;;;;;26.99;43.15;101262.63;5069224;27;45386;-66
2022/08/26 10:52:38;;;;;;;;;9.00;8.00;;;;;26.99;42.78;101259.88;5075275;27;45454;-68
2022/08/26 10:55:15;;;;;;;;;6.33;6.33;;;;;26.99;42.88;101248.00;5075993;27;45496;-68
2022/08/26 10:58:11;;;;;;;;;6.00;6.00;;;;;27.10;42.51;101251.25;5070214;28;46285;-66
2022/08/26 11:03:49;;;;;;;;;8.67;7.00;;;;;27.37;41.39;101251.28;5074675;27;45406;-68
2022/08/26 11:06:17;;;;;;;;;8.00;7.33;;;;;27.44;40.39;101252.88;5075092;27;45456;-67
2022/08/26 11:08:51;;;;;;;;;7.00;5.33;;;;;27.40;40.43;101245.69;5074160;27;45389;-66
2022/08/26 11:11:36;;;;;;;;;5.33;5.33;;;;;27.44;40.74;101244.63;5074669;27;45463;-67
2022/08/26 11:14:09;;;;;;;;;6.67;5.67;;;;;27.48;40.27;101239.91;5074789;27;45376;-68
2022/08/26 11:16:46;;;;;;;;;6.00;6.00;;;;;27.44;40.05;101224.50;5068957;27;45472;-68
2022/08/26 11:19:34;;;;;;;;;8.33;7.00;;;;;27.47;40.15;101239.03;5073605;27;45492;-66
2022/08/26 11:22:08;;;;;;;;;7.00;5.33;;;;;27.52;39.93;101242.50;5073858;27;45366;-67
2022/08/26 11:24:40;;;;;;;;;7.33;6.00;;;;;27.48;38.42;101223.47;5074520;27;45416;-66
2022/08/26 11:27:24;;;;;;;;;2.33;2.33;;;;;27.61;38.78;101234.88;5074699;27;45448;-68
2022/08/26 11:29:58;;;;;;;;;6.00;3.67;;;;;27.60;38.63;101236.72;5074118;27;45487;-68
2022/08/26 11:32:51;;;;;;;;;4.33;4.33;;;;;27.57;38.32;101239.59;5074415;27;45450;-67